createdAt,value
2018-10-07T08:13:41.977Z,31.73
2018-10-07T08:49:53.514Z,35.13
2018-10-07T08:52:36.473Z,34.67
2018-10-07T08:55:13.716Z,36.73
2018-10-07T08:58:14.543Z,34.85
2018-10-07T09:00:44.032Z,34.27
2018-10-07T09:03:13.820Z,35.78
2018-10-07T09:05:43.288Z,33.63
2018-10-07T09:08:11.839Z,32.35
2018-10-07T09:10:40.439Z,31.23
2018-10-07T09:13:11.856Z,31.15
2018-10-07T09:15:47.563Z,29.45
2018-10-07T09:18:30.499Z,30.23
2018-10-07T09:21:14.992Z,30.88
2018-10-07T09:23:46.718Z,30.65
2018-10-07T09:29:09.307Z,29.05
2018-10-07T09:31:59.483Z,27.67
2018-10-07T09:34:28.015Z,27.75
2018-10-07T09:36:56.635Z,29.15
2018-10-07T09:39:25.502Z,27.10
2018-10-07T09:41:54.095Z,26.40
2018-10-07T09:44:24.210Z,25.10
2018-10-07T09:49:51.048Z,25.23
2018-10-07T09:58:30.501Z,21.07
2018-10-07T10:00:59.418Z,21.37
2018-10-07T10:03:27.967Z,19.85
2018-10-07T10:05:56.678Z,18.85
2018-10-07T10:08:25.273Z,19.20
2018-10-07T10:10:54.060Z,18.92
2018-10-07T10:13:45.442Z,18.23
2018-10-07T10:16:14.154Z,19.87
2018-10-07T10:18:52.652Z,18.67
2018-10-07T10:21:27.518Z,19.20
2018-10-07T10:24:02.634Z,16.33
2018-10-07T10:26:39.690Z,15.25
2018-10-07T10:29:16.265Z,14.73
2018-10-07T10:34:14.003Z,14.65
2018-10-07T10:36:54.175Z,13.43
2018-10-07T10:39:29.320Z,13.55
2018-10-07T10:42:08.970Z,9.30
2018-10-07T10:44:46.159Z,9.60
2018-10-07T10:47:24.069Z,10.03
2018-10-07T10:50:03.975Z,9.60
2018-10-07T10:52:39.882Z,9.65
2018-10-07T10:55:16.665Z,9.70
2018-10-07T10:57:48.689Z,9.58
2018-10-07T11:00:24.366Z,10.23
2018-10-07T11:04:00.254Z,10.13
2018-10-07T11:06:40.078Z,10.53
2018-10-07T11:09:13.639Z,8.60
2018-10-07T11:11:56.434Z,8.43
2018-10-07T11:15:39.617Z,8.63
2018-10-07T11:18:44.910Z,6.87
2018-10-07T11:21:23.018Z,5.65
2018-10-07T11:23:53.398Z,6.42
2018-10-07T11:26:28.842Z,7.55
2018-10-07T11:29:05.781Z,11.75
2018-10-07T11:33:53.910Z,12.47
2018-10-07T11:37:04.741Z,14.75
2018-10-07T11:41:46.945Z,15.03
2018-10-07T11:45:32.602Z,14.38
2018-10-07T11:48:10.450Z,16.50
2018-10-07T11:52:58.157Z,16.12
2018-10-07T11:55:26.610Z,15.25
2018-10-07T11:57:55.067Z,15.25
2018-10-07T12:00:23.739Z,15.07
2018-10-07T12:02:52.300Z,15.13
2018-10-07T12:05:20.767Z,14.67
2018-10-07T12:07:49.291Z,15.35
2018-10-07T12:10:17.944Z,13.48
2018-10-07T12:12:46.399Z,14.07
2018-10-07T12:15:14.948Z,13.70
2018-10-07T12:17:43.537Z,12.60
2018-10-07T12:20:12.095Z,11.70
2018-10-07T12:22:40.583Z,11.63
2018-10-07T12:25:09.103Z,9.98
2018-10-07T12:27:37.564Z,7.25
2018-10-07T12:30:06.204Z,7.85
2018-10-07T12:32:35.131Z,6.37
2018-10-07T12:35:04.595Z,5.33
2018-10-07T12:37:33.055Z,4.40
2018-10-07T12:40:01.566Z,4.72
2018-10-07T12:42:30.205Z,4.75
2018-10-07T12:44:58.699Z,4.83
2018-10-07T12:47:30.351Z,4.72
2018-10-07T12:50:06.132Z,3.60
2018-10-07T12:55:18.951Z,2.70
2018-10-07T12:57:47.667Z,2.65
2018-10-07T13:00:16.983Z,2.40
2018-10-07T13:02:47.979Z,2.10
2018-10-07T13:08:41.163Z,1.90
2018-10-07T13:11:09.759Z,2.17
2018-10-07T13:13:38.219Z,2.08
2018-10-07T13:16:06.883Z,2.40
2018-10-07T13:18:35.471Z,2.27
2018-10-07T13:21:04.585Z,1.80
2018-10-07T13:23:33.089Z,2.60
2018-10-07T13:26:01.950Z,1.70
2018-10-07T13:28:30.441Z,2.20
2018-10-07T13:30:58.965Z,2.65
2018-10-07T13:33:27.478Z,1.98
2018-10-07T13:35:55.950Z,1.98
2018-10-07T13:38:24.473Z,2.58
2018-10-07T13:40:52.989Z,3.12
2018-10-07T13:43:22.149Z,3.85
2018-10-07T13:45:50.622Z,4.28
2018-10-07T13:48:22.913Z,2.95
2018-10-07T13:50:51.592Z,2.30
2018-10-07T13:53:20.245Z,2.30
2018-10-07T13:55:56.163Z,7.33
2018-10-07T13:58:24.660Z,6.30
2018-10-07T14:00:53.188Z,6.47
2018-10-07T14:03:22.724Z,2.58
2018-10-07T14:05:51.218Z,2.60
2018-10-07T14:08:19.804Z,1.72
2018-10-07T14:10:48.313Z,2.10
2018-10-07T14:13:16.817Z,1.47
2018-10-07T14:15:45.274Z,2.45
2018-10-07T14:18:13.913Z,2.30
2018-10-07T14:20:43.204Z,3.65
2018-10-07T14:23:11.769Z,3.47
2018-10-07T14:25:40.469Z,2.08
2018-10-07T14:28:10.416Z,1.20
2018-10-07T14:30:39.261Z,1.60
2018-10-07T14:33:10.803Z,2.62
2018-10-07T14:35:39.457Z,2.83
2018-10-07T14:38:07.979Z,3.20
2018-10-07T14:40:36.749Z,2.05
2018-10-07T14:43:06.722Z,1.77
2018-10-07T14:45:35.564Z,2.42
2018-10-07T14:48:05.344Z,2.30
2018-10-07T14:50:33.872Z,3.20
2018-10-07T14:53:02.304Z,1.77
2018-10-07T14:55:31.090Z,2.20
2018-10-07T14:57:59.756Z,4.42
2018-10-07T15:00:28.322Z,6.10
2018-10-07T15:02:56.905Z,2.22
2018-10-07T15:05:25.462Z,2.08
2018-10-07T15:07:54.026Z,2.55
2018-10-07T15:10:22.566Z,1.80
2018-10-07T15:12:51.054Z,1.98
2018-10-07T15:15:19.989Z,1.85
2018-10-07T15:17:48.629Z,1.37
2018-10-07T15:20:17.206Z,1.50
2018-10-07T15:22:45.682Z,1.60
2018-10-07T15:25:14.162Z,2.20
2018-10-07T15:27:42.710Z,2.52
2018-10-07T15:30:11.538Z,3.77
2018-10-07T15:32:40.064Z,5.05
2018-10-07T15:35:08.548Z,2.67
2018-10-07T15:37:37.028Z,2.40
2018-10-07T15:40:05.844Z,1.55
2018-10-07T15:42:34.344Z,1.27
2018-10-07T15:45:02.816Z,1.70
2018-10-07T15:47:31.670Z,1.47
2018-10-07T15:50:00.104Z,1.82
2018-10-07T15:52:28.571Z,1.70
2018-10-07T15:54:57.060Z,1.90
2018-10-07T15:57:25.524Z,1.70
2018-10-07T15:59:53.991Z,2.52
2018-10-07T16:02:22.465Z,2.10
2018-10-07T16:04:51.085Z,2.47
2018-10-07T16:07:19.664Z,2.42
2018-10-07T16:09:48.186Z,1.72
2018-10-07T16:12:17.341Z,1.87
2018-10-07T16:14:46.144Z,2.55
2018-10-07T16:17:14.635Z,1.80
2018-10-07T16:19:43.548Z,1.50
2018-10-07T16:22:12.050Z,2.02
2018-10-07T16:24:40.643Z,2.12
2018-10-07T16:27:09.235Z,2.25
2018-10-07T16:29:37.727Z,2.10
2018-10-07T16:32:06.507Z,2.85
2018-10-07T16:34:35.278Z,3.05
2018-10-07T16:37:03.736Z,2.58
2018-10-07T16:39:35.332Z,2.25
2018-10-07T16:42:04.608Z,2.50
2018-10-07T16:44:33.201Z,1.27
2018-10-07T16:47:01.784Z,2.00
2018-10-07T16:49:30.351Z,1.70
2018-10-07T16:51:59.277Z,1.45
2018-10-07T16:54:28.740Z,2.37
2018-10-07T16:56:57.600Z,3.22
2018-10-07T16:59:26.219Z,2.85
2018-10-07T17:01:55.108Z,2.80
2018-10-07T17:04:23.621Z,2.72
2018-10-07T17:06:52.087Z,3.05
2018-10-07T17:09:20.627Z,2.80
2018-10-07T17:11:49.067Z,3.70
2018-10-07T17:14:17.667Z,4.23
2018-10-07T17:16:46.423Z,2.55
2018-10-07T17:19:14.904Z,2.05
2018-10-07T17:21:43.472Z,1.92
2018-10-07T17:24:12.050Z,1.90
2018-10-07T17:26:40.517Z,1.50
2018-10-07T17:29:09.094Z,2.30
2018-10-07T17:31:37.585Z,2.60
2018-10-07T17:34:06.410Z,2.50
2018-10-07T17:36:35.165Z,2.42
2018-10-07T17:39:04.985Z,3.22
2018-10-07T17:41:33.441Z,3.80
2018-10-07T17:44:01.933Z,2.55
2018-10-07T17:46:30.513Z,2.00
2018-10-07T17:48:59.373Z,2.00
2018-10-07T17:51:27.789Z,2.50
2018-10-07T17:53:56.638Z,2.20
2018-10-07T17:56:25.125Z,1.75
2018-10-07T17:58:53.601Z,1.80
2018-10-07T18:01:22.073Z,2.17
2018-10-07T18:03:50.845Z,1.60
2018-10-07T18:06:21.769Z,1.85
2018-10-07T18:08:50.433Z,1.90
2018-10-07T18:11:18.917Z,2.15
2018-10-07T18:13:47.437Z,2.02
2018-10-07T18:16:16.280Z,1.67
2018-10-07T18:18:44.779Z,2.40
2018-10-07T18:21:13.513Z,2.15
2018-10-07T18:23:41.932Z,2.08
2018-10-07T18:26:14.607Z,1.82
2018-10-07T18:28:43.098Z,1.87
2018-10-07T18:31:11.571Z,2.25
2018-10-07T18:33:40.059Z,1.35
2018-10-07T18:36:08.659Z,1.30
2018-10-07T18:38:37.155Z,1.05
2018-10-07T18:41:05.781Z,0.95
2018-10-07T18:43:35.047Z,1.30
2018-10-07T18:46:05.671Z,2.08
2018-10-07T18:48:34.434Z,1.60
2018-10-07T18:51:02.888Z,1.60
2018-10-07T18:53:31.483Z,1.15
2018-10-07T18:56:00.044Z,1.50
2018-10-07T18:58:28.705Z,1.32
2018-10-07T19:00:57.767Z,1.17
2018-10-07T19:03:26.612Z,1.00
2018-10-07T19:05:55.683Z,1.00
2018-10-07T19:08:24.402Z,1.20
2018-10-07T19:10:52.927Z,1.00
2018-10-07T19:13:21.497Z,1.07
2018-10-07T19:15:53.491Z,1.15
2018-10-07T19:18:22.019Z,1.20
2018-10-07T19:20:51.805Z,1.70
2018-10-07T19:23:23.394Z,1.40
2018-10-07T19:25:51.926Z,1.98
2018-10-07T19:31:12.470Z,1.17
2018-10-07T19:33:41.082Z,1.10
2018-10-07T19:42:12.829Z,1.35
2018-10-07T19:44:41.686Z,1.40
2018-10-07T19:47:10.342Z,1.45
2018-10-07T19:49:39.229Z,1.42
2018-10-07T20:02:13.830Z,1.70
2018-10-07T20:04:42.418Z,2.00
2018-10-07T20:07:10.878Z,2.67
2018-10-07T20:09:39.630Z,5.67
2018-10-07T20:12:08.141Z,5.70
2018-10-07T20:17:11.989Z,4.30
2018-10-07T20:19:40.908Z,3.15
2018-10-07T20:22:12.811Z,3.00
2018-10-07T20:24:46.069Z,2.77
2018-10-07T20:30:07.841Z,3.60
2018-10-07T20:32:36.313Z,2.37
2018-10-07T20:35:09.630Z,4.45
2018-10-07T20:37:38.659Z,5.40
2018-10-07T20:40:09.758Z,6.28
2018-10-07T20:50:06.337Z,5.90
2018-10-07T20:52:35.381Z,4.03
2018-10-07T20:55:04.919Z,3.52
2018-10-07T21:15:30.345Z,1.90
2018-10-07T21:21:09.200Z,1.87
2018-10-07T21:29:02.521Z,2.98
2018-10-07T21:31:31.153Z,1.75
2018-10-07T21:33:59.697Z,1.62
2018-10-07T21:36:28.300Z,2.10
2018-10-07T21:38:56.848Z,1.67
2018-10-07T21:41:28.615Z,2.33
2018-10-07T21:43:57.433Z,2.47
2018-10-07T21:46:26.159Z,2.20
2018-10-07T21:48:54.901Z,2.50
2018-10-07T21:51:23.786Z,2.50
2018-10-07T21:53:52.338Z,2.58
2018-10-07T21:56:20.850Z,3.10
2018-10-07T21:58:49.810Z,2.70
2018-10-07T22:01:18.351Z,3.23
2018-10-07T22:03:47.298Z,2.98
2018-10-07T22:06:15.910Z,3.23
2018-10-07T22:08:44.941Z,3.65
2018-10-07T22:11:14.015Z,3.20
2018-10-07T22:13:43.186Z,3.42
2018-10-07T22:16:12.241Z,3.33
2018-10-07T22:18:41.217Z,3.45
2018-10-07T22:21:10.150Z,3.55
2018-10-07T22:23:38.861Z,3.70
2018-10-07T22:26:07.653Z,3.60
2018-10-07T22:28:40.533Z,3.80
2018-10-07T22:31:16.596Z,3.70
2018-10-07T22:33:45.469Z,4.50
2018-10-07T22:36:14.133Z,4.20
2018-10-07T22:38:44.597Z,4.62
2018-10-07T22:41:13.721Z,4.40
2018-10-07T22:43:46.169Z,4.15
2018-10-07T22:46:15.704Z,4.70
2018-10-07T22:48:44.353Z,4.30
2018-10-07T22:51:13.081Z,4.70
2018-10-07T22:53:42.105Z,3.90
2018-10-07T22:56:10.793Z,4.80
2018-10-07T22:58:39.531Z,5.15
2018-10-07T23:01:08.253Z,5.62
2018-10-07T23:03:36.909Z,6.10
2018-10-07T23:06:06.062Z,5.78
2018-10-07T23:08:34.784Z,5.75
2018-10-07T23:11:03.571Z,6.35
2018-10-07T23:13:32.292Z,6.08
2018-10-07T23:16:01.473Z,5.47
2018-10-07T23:18:30.289Z,6.28
2018-10-07T23:21:00.353Z,6.47
2018-10-07T23:23:28.940Z,5.35
2018-10-07T23:25:57.744Z,7.55
2018-10-07T23:28:26.496Z,7.80
2018-10-07T23:30:55.221Z,8.15
2018-10-07T23:33:23.984Z,7.12
2018-10-07T23:35:52.721Z,7.50
2018-10-07T23:38:21.416Z,7.80
2018-10-07T23:40:51.744Z,8.23
2018-10-07T23:43:20.417Z,8.43
2018-10-07T23:45:49.231Z,8.68
2018-10-07T23:48:17.846Z,8.80
2018-10-07T23:50:46.884Z,8.00
2018-10-07T23:53:15.648Z,7.97
2018-10-07T23:55:44.660Z,7.75
2018-10-07T23:58:13.385Z,8.18
